Terminal Aerodrome Forecast
Issued by NWS

Home | Current Version | Previous Version | Text Only | Print | Product List | Glossary On
Versions: 1 2 3 4 5 6 7 8 9 10 11 12 13 14 15 16 17
000
FTUS44 KMOB 262242 AAB
TAFBFM
TAF AMD
KBFM 262242Z 2623/2718 24004KT P6SM VCSH FEW035 BKN080
     FM270600 32002KT P6SM SCT250
     FM271200 01003KT 4SM BR SCT250=

USA.gov is the U.S. government's official web portal to all federal, state and local government web resources and services.